createdAt,value
2018-12-25T00:00:57.728Z,6.33
2018-12-25T00:03:27.762Z,10.53
2018-12-25T00:05:57.673Z,9.93
2018-12-25T00:08:27.799Z,6.97
2018-12-25T00:10:58.001Z,6.43
2018-12-25T00:13:29.946Z,10.03
2018-12-25T00:16:00.534Z,7.03
2018-12-25T00:18:30.622Z,7.60
2018-12-25T00:21:01.747Z,9.10
2018-12-25T00:23:31.767Z,7.30
2018-12-25T00:26:01.669Z,11.17
2018-12-25T00:28:43.749Z,7.93
2018-12-25T00:31:14.126Z,9.83
2018-12-25T00:33:45.245Z,8.23
2018-12-25T00:36:15.314Z,10.23
2018-12-25T00:38:45.276Z,10.23
2018-12-25T00:41:15.309Z,7.67
2018-12-25T00:43:45.590Z,8.87
2018-12-25T00:46:15.624Z,9.40
2018-12-25T00:48:45.679Z,9.80
2018-12-25T00:51:15.626Z,9.97
2018-12-25T00:53:45.619Z,6.47
2018-12-25T00:56:15.552Z,7.80
2018-12-25T00:58:45.677Z,9.77
2018-12-25T01:01:15.707Z,8.60
2018-12-25T01:03:45.749Z,7.30
2018-12-25T01:06:15.842Z,9.53
2018-12-25T01:09:06.444Z,7.20
2018-12-25T01:11:36.477Z,8.87
2018-12-25T01:14:06.467Z,5.70
2018-12-25T01:16:36.588Z,6.50
2018-12-25T01:19:06.586Z,6.67
2018-12-25T01:21:36.722Z,7.37
2018-12-25T01:24:07.178Z,7.40
2018-12-25T01:26:40.828Z,6.43
2018-12-25T01:29:10.806Z,10.60
2018-12-25T01:31:41.001Z,6.57
2018-12-25T01:34:11.128Z,6.87
2018-12-25T01:36:41.332Z,6.60
2018-12-25T01:39:11.436Z,8.03
2018-12-25T01:41:41.496Z,9.30
2018-12-25T01:44:11.665Z,14.33
2018-12-25T01:46:41.687Z,6.13
2018-12-25T01:49:11.657Z,7.27
2018-12-25T01:51:41.828Z,11.23
2018-12-25T01:54:11.927Z,6.83
2018-12-25T01:56:41.899Z,6.00
2018-12-25T01:59:11.967Z,10.37
2018-12-25T02:01:42.110Z,6.57
2018-12-25T02:04:12.028Z,8.70
2018-12-25T02:06:42.089Z,8.53
2018-12-25T02:09:11.971Z,9.73
2018-12-25T02:11:41.980Z,8.03
2018-12-25T02:14:12.163Z,7.87
2018-12-25T02:16:42.208Z,6.40
2018-12-25T02:19:12.216Z,9.10
2018-12-25T02:21:42.321Z,7.70
2018-12-25T02:24:12.408Z,7.10
2018-12-25T02:26:42.420Z,6.60
2018-12-25T02:29:12.452Z,5.93
2018-12-25T02:31:42.381Z,8.10
2018-12-25T02:34:12.473Z,7.10
2018-12-25T02:36:42.621Z,5.20
2018-12-25T02:39:12.709Z,7.47
2018-12-25T02:41:42.628Z,6.43
2018-12-25T02:44:12.605Z,6.33
2018-12-25T02:46:42.658Z,8.43
2018-12-25T02:49:12.636Z,5.63
2018-12-25T02:51:42.543Z,9.37
2018-12-25T02:54:12.608Z,6.30
2018-12-25T02:56:42.739Z,8.23
2018-12-25T02:59:12.840Z,9.87
2018-12-25T03:01:42.968Z,7.63
2018-12-25T03:04:13.089Z,7.90
2018-12-25T03:06:43.008Z,8.53
2018-12-25T03:09:13.036Z,8.33
2018-12-25T03:11:42.946Z,10.13
2018-12-25T03:14:13.314Z,8.73
2018-12-25T03:16:43.321Z,7.60
2018-12-25T03:19:13.367Z,7.30
2018-12-25T03:21:43.349Z,9.17
2018-12-25T03:24:13.277Z,8.57
2018-12-25T03:26:43.652Z,9.23
2018-12-25T03:29:13.630Z,8.40
2018-12-25T03:31:43.546Z,6.30
2018-12-25T03:34:13.435Z,7.43
2018-12-25T03:36:44.381Z,9.47
2018-12-25T03:39:15.378Z,7.80
2018-12-25T03:41:45.337Z,9.57
2018-12-25T03:44:15.290Z,7.97
2018-12-25T03:46:45.264Z,7.73
2018-12-25T03:49:15.313Z,6.87
2018-12-25T03:51:45.360Z,10.30
2018-12-25T03:54:15.399Z,8.83
2018-12-25T03:56:45.270Z,8.63
2018-12-25T03:59:15.256Z,9.53
2018-12-25T04:01:45.129Z,13.97
2018-12-25T04:04:15.060Z,13.90
2018-12-25T04:06:44.974Z,15.97
2018-12-25T04:09:14.890Z,11.40
2018-12-25T04:11:44.895Z,9.07
2018-12-25T04:14:14.843Z,11.00
2018-12-25T04:16:56.444Z,10.97
2018-12-25T04:19:26.307Z,7.87
2018-12-25T04:21:56.231Z,10.00
2018-12-25T04:24:26.124Z,10.30
2018-12-25T04:26:56.151Z,12.40
2018-12-25T04:29:26.043Z,7.50
2018-12-25T04:31:55.994Z,12.10
2018-12-25T04:34:25.966Z,9.13
2018-12-25T04:36:55.972Z,11.73
2018-12-25T04:39:37.719Z,13.30
2018-12-25T04:42:07.705Z,9.50
2018-12-25T04:44:37.822Z,10.33
2018-12-25T04:47:08.147Z,7.07
2018-12-25T04:49:38.173Z,13.10
2018-12-25T04:52:08.394Z,15.33
2018-12-25T04:54:38.717Z,11.43
2018-12-25T04:57:08.723Z,9.97
2018-12-25T04:59:38.730Z,10.07
2018-12-25T05:02:08.803Z,16.40
2018-12-25T05:04:38.815Z,21.93
2018-12-25T05:07:08.716Z,20.50
2018-12-25T05:09:38.798Z,17.63
2018-12-25T05:12:08.884Z,13.33
2018-12-25T05:14:38.838Z,11.00
2018-12-25T05:17:08.966Z,11.03
2018-12-25T05:19:38.852Z,14.13
2018-12-25T05:22:08.806Z,10.53
2018-12-25T05:24:38.698Z,13.67
2018-12-25T05:27:08.571Z,12.83
2018-12-25T05:29:38.473Z,14.90
2018-12-25T05:32:08.420Z,12.30
2018-12-25T05:34:38.321Z,10.47
2018-12-25T05:37:08.212Z,15.67
2018-12-25T05:39:40.066Z,12.40
2018-12-25T05:42:09.958Z,11.10
2018-12-25T05:44:40.116Z,12.90
2018-12-25T05:47:10.141Z,14.13
2018-12-25T05:49:40.457Z,12.97
2018-12-25T05:52:10.494Z,15.63
2018-12-25T05:54:40.437Z,17.87
2018-12-25T05:57:10.402Z,16.63
2018-12-25T05:59:40.688Z,20.23
2018-12-25T06:02:12.042Z,15.73
2018-12-25T06:04:41.937Z,19.07
2018-12-25T06:07:11.853Z,21.47
2018-12-25T06:09:41.959Z,19.53
2018-12-25T06:12:12.033Z,20.07
2018-12-25T06:14:42.174Z,21.37
2018-12-25T06:17:12.130Z,24.77
2018-12-25T06:19:42.296Z,19.60
2018-12-25T06:22:12.397Z,23.43
2018-12-25T06:24:42.635Z,22.13
2018-12-25T06:27:12.793Z,25.63
2018-12-25T06:29:42.744Z,20.37
2018-12-25T06:32:12.746Z,23.23
2018-12-25T06:34:42.981Z,27.17
2018-12-25T06:37:15.141Z,26.63
2018-12-25T06:39:45.156Z,28.43
2018-12-25T06:42:15.353Z,25.00
2018-12-25T06:44:45.413Z,25.20
2018-12-25T06:47:17.001Z,29.93
2018-12-25T06:49:47.141Z,25.73
2018-12-25T06:52:17.181Z,31.90
2018-12-25T06:54:47.183Z,25.90
2018-12-25T06:57:17.193Z,26.03
2018-12-25T06:59:47.213Z,33.83
2018-12-25T07:02:17.354Z,29.73
2018-12-25T07:04:47.353Z,27.37
2018-12-25T07:07:17.476Z,30.40
2018-12-25T07:09:47.453Z,27.73
2018-12-25T07:12:17.406Z,31.87
2018-12-25T07:14:47.516Z,30.93
2018-12-25T07:17:17.628Z,32.00
2018-12-25T07:19:47.764Z,34.27
2018-12-25T07:22:17.799Z,35.63
2018-12-25T07:24:47.817Z,37.57
2018-12-25T07:27:17.836Z,35.23
2018-12-25T07:29:47.850Z,33.07
2018-12-25T07:32:30.499Z,36.23
2018-12-25T07:35:00.936Z,38.83
2018-12-25T07:37:31.236Z,36.17
2018-12-25T07:40:01.394Z,32.67
2018-12-25T07:42:31.529Z,40.50
2018-12-25T07:45:01.472Z,33.33
2018-12-25T07:47:31.648Z,34.03
2018-12-25T07:50:01.755Z,37.67
2018-12-25T07:52:31.989Z,32.00
2018-12-25T07:55:02.262Z,41.00
2018-12-25T07:57:32.368Z,36.00
2018-12-25T08:00:02.547Z,31.97
2018-12-25T08:02:32.766Z,41.23
2018-12-25T08:05:03.071Z,36.27
2018-12-25T08:07:33.191Z,33.73
2018-12-25T08:10:05.129Z,38.45
2018-12-25T08:12:35.333Z,34.67
2018-12-25T08:15:05.606Z,35.13
2018-12-25T08:17:35.725Z,36.13
2018-12-25T08:20:06.035Z,37.70
2018-12-25T08:22:35.936Z,40.33
2018-12-25T08:25:06.325Z,41.97
2018-12-25T08:27:36.374Z,38.33
2018-12-25T08:30:06.524Z,31.00
2018-12-25T08:32:36.718Z,35.25
2018-12-25T08:35:07.142Z,36.50
2018-12-25T08:37:37.268Z,38.77
2018-12-25T08:40:07.588Z,37.03
2018-12-25T08:42:37.594Z,39.67
2018-12-25T08:45:07.849Z,39.37
2018-12-25T08:47:39.033Z,40.57
2018-12-25T08:50:10.789Z,39.27
2018-12-25T08:52:40.874Z,35.00
2018-12-25T08:55:10.814Z,38.37
2018-12-25T08:57:40.882Z,38.17
2018-12-25T09:00:12.854Z,38.27
2018-12-25T09:02:44.413Z,36.77
2018-12-25T09:05:14.483Z,37.53
2018-12-25T09:07:44.629Z,41.87
2018-12-25T09:10:14.626Z,41.40
2018-12-25T09:12:44.861Z,42.75
2018-12-25T09:15:14.994Z,43.77
2018-12-25T09:17:45.287Z,38.17
2018-12-25T09:20:15.456Z,43.63
2018-12-25T09:22:47.474Z,37.63
2018-12-25T09:25:17.573Z,37.03
2018-12-25T09:27:47.717Z,39.70
2018-12-25T09:30:30.073Z,34.67
2018-12-25T09:33:00.049Z,36.67
2018-12-25T09:35:31.756Z,38.93
2018-12-25T09:38:01.825Z,39.27
2018-12-25T09:40:31.822Z,42.27
2018-12-25T09:43:02.016Z,40.20
2018-12-25T09:45:32.113Z,31.43
2018-12-25T09:48:02.130Z,50.87
2018-12-25T09:50:32.093Z,34.47
2018-12-25T09:53:04.081Z,37.70
2018-12-25T09:55:33.956Z,45.20
2018-12-25T09:58:04.021Z,39.10
2018-12-25T10:00:35.655Z,33.70
2018-12-25T10:03:05.613Z,41.63
2018-12-25T10:05:35.748Z,36.63
2018-12-25T10:08:06.938Z,38.47
2018-12-25T10:10:37.009Z,38.50
2018-12-25T10:13:07.192Z,34.77
2018-12-25T10:15:37.228Z,38.08
2018-12-25T10:18:07.336Z,39.00
2018-12-25T10:20:37.308Z,41.20
2018-12-25T10:23:07.463Z,35.63
2018-12-25T10:25:37.592Z,45.28
2018-12-25T10:28:07.756Z,37.07
2018-12-25T10:30:37.849Z,38.50
2018-12-25T10:33:07.853Z,38.60
2018-12-25T10:35:37.817Z,36.17
2018-12-25T10:38:07.951Z,44.17
2018-12-25T10:40:38.106Z,44.97
2018-12-25T10:43:08.182Z,43.67
2018-12-25T10:45:38.244Z,39.33
2018-12-25T10:48:08.280Z,32.20
2018-12-25T10:50:38.300Z,37.27
2018-12-25T10:53:10.178Z,41.30
2018-12-25T10:55:40.310Z,39.70
2018-12-25T10:58:10.532Z,39.40
2018-12-25T11:00:45.483Z,37.70
2018-12-25T11:03:15.517Z,41.30
2018-12-25T11:05:45.823Z,40.25
2018-12-25T11:08:15.851Z,41.90
2018-12-25T11:10:45.932Z,51.20
2018-12-25T11:13:15.949Z,36.50
2018-12-25T11:15:46.028Z,45.77
2018-12-25T11:18:16.044Z,37.77
2018-12-25T11:20:48.252Z,42.73
2018-12-25T11:23:19.304Z,41.87
2018-12-25T11:25:49.438Z,44.33
2018-12-25T11:28:19.447Z,36.20
2018-12-25T11:30:49.718Z,40.60
2018-12-25T11:33:20.265Z,38.33
2018-12-25T11:35:50.750Z,41.27
2018-12-25T11:38:21.019Z,44.33
2018-12-25T11:40:51.157Z,36.50
2018-12-25T11:43:21.369Z,43.00
2018-12-25T11:45:51.318Z,43.37
2018-12-25T11:48:21.782Z,35.27
2018-12-25T11:50:51.900Z,44.73
2018-12-25T11:53:22.163Z,49.40
2018-12-25T11:55:52.327Z,52.20
2018-12-25T11:58:22.648Z,61.43
2018-12-25T12:00:52.692Z,54.80
2018-12-25T12:03:22.708Z,49.20
2018-12-25T12:05:53.376Z,50.57
2018-12-25T12:08:23.661Z,58.00
2018-12-25T12:10:53.767Z,45.73
2018-12-25T12:13:24.488Z,33.70
2018-12-25T12:15:54.808Z,47.43
2018-12-25T12:18:25.244Z,40.00
2018-12-25T12:20:55.533Z,42.67
2018-12-25T12:23:25.958Z,38.33
2018-12-25T12:25:55.999Z,44.20
2018-12-25T12:28:26.051Z,40.23
2018-12-25T12:30:56.059Z,45.80
2018-12-25T12:33:38.281Z,42.77
2018-12-25T12:36:08.935Z,44.67
2018-12-25T12:38:39.319Z,54.50
2018-12-25T12:41:10.363Z,41.63
2018-12-25T12:43:40.589Z,44.33
2018-12-25T12:46:10.806Z,42.93
2018-12-25T12:48:40.927Z,44.90
2018-12-25T12:51:12.340Z,44.80
2018-12-25T12:53:42.491Z,43.53
2018-12-25T12:56:14.299Z,41.60
2018-12-25T12:58:44.464Z,41.63
2018-12-25T13:01:19.600Z,50.37
2018-12-25T13:03:49.762Z,48.80
2018-12-25T13:06:20.131Z,50.37
2018-12-25T13:08:50.391Z,50.67
2018-12-25T13:11:20.460Z,48.33
2018-12-25T13:13:50.691Z,46.67
2018-12-25T13:16:20.911Z,43.68
2018-12-25T13:18:52.310Z,49.85
2018-12-25T13:21:22.327Z,41.07
2018-12-25T13:23:52.579Z,39.03
2018-12-25T13:26:22.897Z,40.00
2018-12-25T13:28:53.037Z,40.87
2018-12-25T13:31:22.941Z,44.13
2018-12-25T13:33:55.294Z,52.17
2018-12-25T13:36:25.503Z,36.07
2018-12-25T13:38:55.699Z,38.03
2018-12-25T13:41:25.969Z,37.83
2018-12-25T13:43:56.047Z,34.50
2018-12-25T13:46:26.153Z,34.37
2018-12-25T13:48:58.094Z,42.53
2018-12-25T13:51:28.255Z,32.97
2018-12-25T13:53:58.384Z,30.50
2018-12-25T13:56:28.563Z,29.80
2018-12-25T13:58:59.058Z,32.65
2018-12-25T14:01:29.191Z,30.77
2018-12-25T14:03:59.415Z,36.90
2018-12-25T14:06:29.526Z,30.87
2018-12-25T14:08:59.604Z,33.80
2018-12-25T14:11:29.622Z,36.23
2018-12-25T14:13:59.742Z,35.53
2018-12-25T14:16:29.881Z,33.25
2018-12-25T14:18:59.863Z,39.37
2018-12-25T14:21:29.876Z,29.15
2018-12-25T14:23:59.972Z,39.27
2018-12-25T14:26:29.897Z,36.83
2018-12-25T14:29:00.042Z,29.75
2018-12-25T14:31:29.965Z,31.80
2018-12-25T14:34:00.046Z,36.70
2018-12-25T14:36:31.165Z,34.37
2018-12-25T14:39:01.210Z,33.47
2018-12-25T14:41:33.110Z,33.07
2018-12-25T14:44:05.323Z,30.87
2018-12-25T14:46:34.862Z,34.73
2018-12-25T14:49:05.041Z,38.70
2018-12-25T14:51:35.069Z,39.50
2018-12-25T14:54:05.301Z,39.40
2018-12-25T14:56:35.230Z,42.57
2018-12-25T14:59:05.311Z,37.93
2018-12-25T15:01:35.441Z,33.97
2018-12-25T15:04:05.451Z,39.15
2018-12-25T15:06:35.641Z,36.80
2018-12-25T15:09:07.050Z,36.53
2018-12-25T15:11:37.243Z,39.13
2018-12-25T15:14:07.359Z,42.90
2018-12-25T15:16:37.482Z,41.37
2018-12-25T15:19:07.630Z,43.17
2018-12-25T15:21:37.635Z,46.73
2018-12-25T15:24:07.728Z,42.40
2018-12-25T15:26:37.781Z,59.17
2018-12-25T15:29:07.862Z,45.30
2018-12-25T15:31:37.817Z,41.00
2018-12-25T15:34:07.821Z,49.70
2018-12-25T15:36:37.896Z,55.03
2018-12-25T15:39:12.017Z,48.20
2018-12-25T15:41:42.081Z,45.03
2018-12-25T15:44:12.264Z,52.05
2018-12-25T15:46:42.461Z,53.75
2018-12-25T15:49:12.401Z,46.00
2018-12-25T15:51:42.453Z,46.17
2018-12-25T15:54:12.454Z,48.60
2018-12-25T15:56:42.510Z,68.57
2018-12-25T15:59:12.450Z,54.20
2018-12-25T16:01:42.662Z,58.70
2018-12-25T16:04:12.749Z,55.27
2018-12-25T16:06:42.803Z,43.37
2018-12-25T16:09:13.001Z,39.70
2018-12-25T16:11:43.083Z,44.53
2018-12-25T16:14:13.133Z,45.87
2018-12-25T16:16:43.233Z,42.43
2018-12-25T16:19:13.341Z,43.47
2018-12-25T16:21:43.386Z,53.77
2018-12-25T16:24:13.414Z,51.23
2018-12-25T16:26:43.429Z,55.40
2018-12-25T16:29:13.453Z,62.50
2018-12-25T16:31:43.474Z,50.80
2018-12-25T16:34:27.236Z,51.80
2018-12-25T16:36:57.195Z,57.03
2018-12-25T16:39:27.286Z,53.47
2018-12-25T16:41:57.253Z,57.17
2018-12-25T16:44:27.400Z,56.98
2018-12-25T16:46:57.400Z,56.70
2018-12-25T16:49:27.533Z,63.48
2018-12-25T16:51:57.477Z,49.13
2018-12-25T16:54:27.726Z,54.90
2018-12-25T16:56:57.798Z,60.50
2018-12-25T16:59:27.742Z,64.70
2018-12-25T17:01:57.896Z,64.87
2018-12-25T17:04:27.905Z,59.20
2018-12-25T17:06:58.043Z,59.60
2018-12-25T17:09:28.015Z,59.13
2018-12-25T17:11:59.766Z,58.95
2018-12-25T17:14:29.726Z,66.67
2018-12-25T17:16:59.807Z,66.03
2018-12-25T17:19:29.866Z,61.90
2018-12-25T17:22:01.329Z,64.27
2018-12-25T17:24:31.388Z,52.63
2018-12-25T17:27:01.549Z,62.10
2018-12-25T17:29:31.519Z,64.37
2018-12-25T17:32:01.606Z,56.60
2018-12-25T17:34:31.741Z,56.77
2018-12-25T17:37:01.760Z,57.23
2018-12-25T17:39:31.894Z,54.30
2018-12-25T17:42:01.995Z,62.83
2018-12-25T17:44:32.131Z,59.90
2018-12-25T17:47:04.253Z,48.75
2018-12-25T17:49:34.282Z,56.53
2018-12-25T17:52:04.454Z,56.77
2018-12-25T17:54:34.426Z,53.52
2018-12-25T17:57:04.519Z,57.30
2018-12-25T17:59:34.514Z,55.57
2018-12-25T18:02:04.766Z,53.90
2018-12-25T18:04:35.740Z,55.58
2018-12-25T18:07:06.213Z,59.03
2018-12-25T18:09:36.217Z,54.67
2018-12-25T18:12:06.275Z,55.33
2018-12-25T18:14:36.591Z,54.23
2018-12-25T18:17:06.613Z,56.60
2018-12-25T18:19:36.659Z,56.13
2018-12-25T18:22:06.803Z,67.50
2018-12-25T18:24:36.854Z,60.33
2018-12-25T18:27:06.905Z,65.30
2018-12-25T18:29:36.957Z,68.28
2018-12-25T18:32:07.026Z,61.57
2018-12-25T18:34:37.036Z,54.23
2018-12-25T18:37:07.315Z,51.95
2018-12-25T18:39:37.367Z,54.23
2018-12-25T18:42:07.395Z,60.30
2018-12-25T18:44:37.367Z,52.75
2018-12-25T18:47:07.407Z,69.27
2018-12-25T18:49:37.520Z,54.67
2018-12-25T18:52:09.245Z,67.13
2018-12-25T18:54:39.359Z,65.40
2018-12-25T18:57:09.470Z,56.73
2018-12-25T18:59:39.631Z,62.20
2018-12-25T19:02:10.062Z,54.98
2018-12-25T19:04:40.329Z,47.40
2018-12-25T19:07:10.601Z,48.68
2018-12-25T19:09:40.876Z,48.37
2018-12-25T19:12:11.042Z,49.23
2018-12-25T19:15:06.788Z,44.42
2018-12-25T19:17:56.829Z,46.03
2018-12-25T19:20:26.966Z,40.28
2018-12-25T19:22:57.095Z,50.17
2018-12-25T19:25:27.210Z,45.65
2018-12-25T19:27:57.210Z,47.43
2018-12-25T19:30:29.629Z,50.37
2018-12-25T19:32:59.707Z,47.75
2018-12-25T19:35:29.870Z,43.15
2018-12-25T19:37:59.969Z,76.12
2018-12-25T19:40:30.121Z,81.40
2018-12-25T19:43:00.170Z,54.93
2018-12-25T19:45:42.175Z,59.20
2018-12-25T19:48:12.260Z,54.42
2018-12-25T19:50:42.517Z,56.63
2018-12-25T19:53:12.661Z,72.37
2018-12-25T19:55:42.745Z,45.98
2018-12-25T19:58:14.246Z,41.05
2018-12-25T20:00:44.428Z,53.85
2018-12-25T20:03:28.440Z,52.13
2018-12-25T20:06:37.040Z,49.23
2018-12-25T20:09:45.418Z,54.30
2018-12-25T20:12:53.840Z,45.48
2018-12-25T20:15:48.021Z,41.92
2018-12-25T20:18:42.068Z,45.60
2018-12-25T20:21:50.961Z,45.52
2018-12-25T20:24:59.413Z,45.20
2018-12-25T20:28:00.311Z,45.55
2018-12-25T20:31:09.094Z,30.77
2018-12-25T20:34:09.183Z,40.98
2018-12-25T20:37:17.859Z,42.48
2018-12-25T20:40:13.169Z,35.10
2018-12-25T20:43:23.241Z,34.43
2018-12-25T20:46:34.150Z,33.10
2018-12-25T20:49:39.770Z,32.35
2018-12-25T20:52:38.135Z,30.52
2018-12-25T20:55:45.357Z,40.03
2018-12-25T20:58:39.444Z,30.70
2018-12-25T21:01:47.871Z,37.38
2018-12-25T21:04:56.428Z,33.28
2018-12-25T21:07:50.608Z,37.33
2018-12-25T21:11:01.013Z,38.05
2018-12-25T21:14:10.512Z,30.37
2018-12-25T21:17:18.976Z,29.37
2018-12-25T21:20:21.391Z,31.87
2018-12-25T21:23:29.942Z,32.53
2018-12-25T21:26:38.521Z,26.12
2018-12-25T21:29:13.070Z,31.70
2018-12-25T21:31:43.281Z,33.50
2018-12-25T21:34:14.016Z,29.20
2018-12-25T21:36:53.661Z,29.57
2018-12-25T21:39:23.837Z,34.70
2018-12-25T21:41:59.041Z,30.40
2018-12-25T21:44:31.882Z,26.97
2018-12-25T21:47:04.301Z,29.05
2018-12-25T21:49:43.186Z,30.50
2018-12-25T21:52:16.528Z,29.27
2018-12-25T21:54:47.657Z,29.82
2018-12-25T21:57:17.767Z,29.67
2018-12-25T21:59:48.040Z,32.33
2018-12-25T22:02:18.222Z,29.12
2018-12-25T22:04:48.337Z,29.10
2018-12-25T22:07:18.535Z,28.83
2018-12-25T22:09:48.955Z,36.20
2018-12-25T22:12:19.017Z,28.07
2018-12-25T22:14:48.989Z,33.98
2018-12-25T22:17:19.118Z,29.00
2018-12-25T22:19:49.531Z,31.97
2018-12-25T22:22:19.740Z,36.77
2018-12-25T22:24:49.937Z,30.75
2018-12-25T22:27:19.993Z,35.55
2018-12-25T22:29:50.192Z,37.10
2018-12-25T22:32:20.339Z,39.58
2018-12-25T22:34:50.518Z,29.00
2018-12-25T22:37:20.776Z,32.73
2018-12-25T22:39:50.974Z,33.63
2018-12-25T22:42:21.659Z,31.90
2018-12-25T22:44:51.797Z,35.28
2018-12-25T22:47:22.198Z,32.47
2018-12-25T22:49:52.286Z,32.10
2018-12-25T22:52:22.834Z,30.88
2018-12-25T22:54:53.523Z,30.65
2018-12-25T22:57:24.181Z,31.90
2018-12-25T22:59:54.790Z,29.55
2018-12-25T23:02:26.137Z,30.07
2018-12-25T23:04:56.144Z,28.75
2018-12-25T23:07:26.747Z,32.08
2018-12-25T23:09:57.077Z,28.83
2018-12-25T23:12:28.035Z,35.60
2018-12-25T23:14:58.801Z,34.90
2018-12-25T23:17:28.970Z,30.43
2018-12-25T23:19:59.057Z,29.25
2018-12-25T23:22:29.203Z,32.10
2018-12-25T23:24:59.205Z,34.30
2018-12-25T23:27:30.379Z,24.75
2018-12-25T23:30:00.383Z,30.53
2018-12-25T23:32:30.511Z,30.32
2018-12-25T23:35:00.582Z,30.70
2018-12-25T23:37:30.762Z,34.67
2018-12-25T23:40:00.907Z,30.12
2018-12-25T23:42:30.892Z,33.33
2018-12-25T23:45:02.934Z,30.37
2018-12-25T23:47:32.809Z,31.57
2018-12-25T23:50:02.794Z,28.80
2018-12-25T23:52:32.832Z,32.58
2018-12-25T23:55:03.004Z,30.15
2018-12-25T23:57:33.070Z,34.05
